Time;durP1;ratioP1;P1;durP2;ratioP2;P2;SDS_P1;SDS_P2;PMS_P1;PMS_P2;Temp;Humidity;BMP_temperature;BMP_pressure;BME280_temperature;BME280_humidity;BME280_pressure;Samples;Min_cycle;Max_cycle;Signal;HPM_P1;HPM_P2
2022/07/27 00:02:05;;;;;;;31.38;23.90;;;;;;;;;;4893799;29;20049;-79
2022/07/27 00:04:30;;;;;;;27.85;24.45;;;;;;;;;;4889296;29;20541;-80
2022/07/27 00:06:56;;;;;;;35.17;28.77;;;;;;;;;;4885287;29;20105;-81
2022/07/27 00:09:22;;;;;;;34.17;29.92;;;;;;;;;;4864708;29;20147;-81
2022/07/27 00:11:48;;;;;;;32.60;28.15;;;;;;;;;;4864944;29;20113;-79
2022/07/27 00:14:14;;;;;;;40.90;30.73;;;;;;;;;;4880652;29;20538;-80
2022/07/27 00:16:40;;;;;;;35.03;30.20;;;;;;;;;;4881439;29;20037;-81
2022/07/27 00:19:06;;;;;;;37.95;27.35;;;;;;;;;;4864285;29;20099;-80
2022/07/27 00:21:32;;;;;;;35.35;30.05;;;;;;;;;;4848225;29;20041;-79
2022/07/27 00:23:57;;;;;;;37.45;27.30;;;;;;;;;;4880527;29;20061;-81
2022/07/27 00:26:23;;;;;;;26.30;22.42;;;;;;;;;;4880155;29;20048;-80
2022/07/27 00:28:49;;;;;;;25.80;22.00;;;;;;;;;;4880485;29;20133;-80
2022/07/27 00:31:15;;;;;;;24.58;21.98;;;;;;;;;;4880169;29;20044;-78
2022/07/27 00:33:41;;;;;;;28.52;21.63;;;;;;;;;;4877813;29;20135;-80
2022/07/27 00:36:08;;;;;;;27.35;22.45;;;;;;;;;;4878855;29;20135;-79
2022/07/27 00:38:33;;;;;;;25.90;23.38;;;;;;;;;;4878957;29;20131;-78
2022/07/27 00:41:00;;;;;;;30.17;22.95;;;;;;;;;;4878743;29;20131;-76
2022/07/27 00:43:26;;;;;;;34.80;26.23;;;;;;;;;;4879032;29;20144;-79
2022/07/27 00:45:51;;;;;;;30.83;24.40;;;;;;;;;;4861639;29;20068;-79
2022/07/27 00:48:17;;;;;;;26.75;23.77;;;;;;;;;;4878447;29;20085;-79
2022/07/27 00:50:43;;;;;;;28.88;23.38;;;;;;;;;;4878297;29;20097;-79
2022/07/27 00:53:09;;;;;;;30.00;24.33;;;;;;;;;;4862083;29;20526;-79
2022/07/27 00:55:35;;;;;;;27.52;24.73;;;;;;;;;;4861871;29;20553;-79
2022/07/27 00:58:02;;;;;;;29.13;23.80;;;;;;;;;;4878119;29;20072;-79
2022/07/27 01:00:28;;;;;;;32.30;24.90;;;;;;;;;;4861561;29;20390;-79
2022/07/27 01:02:53;;;;;;;27.02;24.20;;;;;;;;;;4878223;29;20061;-80
2022/07/27 01:05:20;;;;;;;27.65;24.83;;;;;;;;;;4861417;29;20278;-78
2022/07/27 01:07:46;;;;;;;28.65;24.17;;;;;;;;;;4878304;29;20124;-79
2022/07/27 01:10:12;;;;;;;27.90;24.25;;;;;;;;;;4861888;29;20052;-80
2022/07/27 01:12:38;;;;;;;30.23;26.33;;;;;;;;;;4877921;29;20430;-78
2022/07/27 01:15:05;;;;;;;27.48;24.65;;;;;;;;;;4860997;29;20045;-79
2022/07/27 01:17:32;;;;;;;27.17;24.27;;;;;;;;;;4861405;29;20052;-80
2022/07/27 01:19:58;;;;;;;28.83;25.70;;;;;;;;;;4876206;29;20041;-80
2022/07/27 01:22:24;;;;;;;29.85;25.45;;;;;;;;;;4877021;29;20429;-77
2022/07/27 01:24:50;;;;;;;34.63;24.67;;;;;;;;;;4877709;29;20060;-80
2022/07/27 01:27:16;;;;;;;29.42;26.38;;;;;;;;;;4877523;29;20053;-80
2022/07/27 01:29:42;;;;;;;32.42;25.23;;;;;;;;;;4877791;29;20049;-79
2022/07/27 01:32:08;;;;;;;28.67;24.20;;;;;;;;;;4877142;29;20522;-79
2022/07/27 01:34:34;;;;;;;35.88;25.65;;;;;;;;;;4878493;29;20048;-79
2022/07/27 01:37:00;;;;;;;32.80;25.98;;;;;;;;;;4861900;29;20104;-79
2022/07/27 01:39:26;;;;;;;28.63;25.60;;;;;;;;;;4878681;29;20514;-79
2022/07/27 01:41:52;;;;;;;28.60;25.00;;;;;;;;;;4878571;29;20041;-79
2022/07/27 01:44:18;;;;;;;34.08;23.67;;;;;;;;;;4878435;29;20112;-79
2022/07/27 01:46:44;;;;;;;29.73;24.90;;;;;;;;;;4879070;29;20154;-79
2022/07/27 01:49:10;;;;;;;32.08;25.63;;;;;;;;;;4879401;29;20052;-80
2022/07/27 01:51:36;;;;;;;33.25;26.33;;;;;;;;;;4879336;29;20104;-78
2022/07/27 01:54:02;;;;;;;26.63;23.75;;;;;;;;;;4896404;29;20053;-79
2022/07/27 01:56:28;;;;;;;27.52;24.63;;;;;;;;;;4881245;29;20045;-80
2022/07/27 01:58:54;;;;;;;27.20;24.38;;;;;;;;;;4862125;29;20049;-79
2022/07/27 02:01:19;;;;;;;31.38;23.88;;;;;;;;;;4877853;29;20414;-77
2022/07/27 02:03:45;;;;;;;34.22;25.90;;;;;;;;;;4877735;29;20096;-79
2022/07/27 02:06:11;;;;;;;30.90;26.50;;;;;;;;;;4878082;29;20037;-80
2022/07/27 02:08:38;;;;;;;32.03;28.48;;;;;;;;;;4878612;29;20061;-78
2022/07/27 02:13:48;;;;;;;27.65;24.80;;;;;;;;;;4864080;29;20052;-78
2022/07/27 02:16:14;;;;;;;29.08;26.00;;;;;;;;;;4860954;29;20040;-80
2022/07/27 02:18:40;;;;;;;27.52;24.63;;;;;;;;;;4877706;29;20053;-79
2022/07/27 02:21:06;;;;;;;26.60;24.02;;;;;;;;;;4877212;29;20403;-81
2022/07/27 02:23:33;;;;;;;29.02;24.05;;;;;;;;;;4845859;29;20060;-79
2022/07/27 02:25:58;;;;;;;25.52;19.08;;;;;;;;;;4845128;29;20068;-80
2022/07/27 02:28:24;;;;;;;23.02;16.13;;;;;;;;;;4877268;29;20464;-80
2022/07/27 02:30:50;;;;;;;20.30;18.23;;;;;;;;;;4860990;29;20165;-80
2022/07/27 02:33:16;;;;;;;23.13;17.80;;;;;;;;;;4876810;29;20056;-79
2022/07/27 02:35:42;;;;;;;25.52;21.55;;;;;;;;;;4877450;29;20539;-78
2022/07/27 02:38:08;;;;;;;29.23;22.48;;;;;;;;;;4876829;29;20594;-77
2022/07/27 02:40:34;;;;;;;24.92;21.50;;;;;;;;;;4860744;29;20049;-79
2022/07/27 02:43:00;;;;;;;20.13;17.70;;;;;;;;;;4876843;29;20598;-77
2022/07/27 02:45:26;;;;;;;21.38;15.18;;;;;;;;;;4876815;29;20049;-79
2022/07/27 02:47:52;;;;;;;18.25;16.23;;;;;;;;;;4882357;29;20041;-78
2022/07/27 02:50:18;;;;;;;16.60;14.70;;;;;;;;;;4873589;29;20049;-78
2022/07/27 02:52:44;;;;;;;19.15;13.85;;;;;;;;;;4889740;29;20125;-77
2022/07/27 02:55:10;;;;;;;22.88;19.40;;;;;;;;;;4861132;29;20507;-78
2022/07/27 02:57:39;;;;;;;21.17;17.67;;;;;;;;;;4877026;29;20057;-79
2022/07/27 03:00:06;;;;;;;23.52;18.75;;;;;;;;;;4876838;29;20041;-78
2022/07/27 03:02:32;;;;;;;26.27;21.15;;;;;;;;;;4876535;29;20071;-78
2022/07/27 03:04:58;;;;;;;29.30;22.20;;;;;;;;;;4844878;29;20514;-79
2022/07/27 03:07:23;;;;;;;29.77;22.35;;;;;;;;;;4876375;29;20044;-80
2022/07/27 03:09:50;;;;;;;27.48;19.13;;;;;;;;;;4860421;29;20548;-79
2022/07/27 03:12:16;;;;;;;30.15;17.40;;;;;;;;;;4876459;29;20041;-77
2022/07/27 03:14:42;;;;;;;29.77;17.98;;;;;;;;;;4876748;29;20244;-79
2022/07/27 03:17:07;;;;;;;26.52;19.55;;;;;;;;;;4876099;29;20072;-79
2022/07/27 03:19:33;;;;;;;28.08;21.33;;;;;;;;;;4876571;29;20534;-78
2022/07/27 03:21:59;;;;;;;24.92;20.33;;;;;;;;;;4860187;29;20041;-78
2022/07/27 03:24:25;;;;;;;22.80;19.35;;;;;;;;;;4876307;29;20052;-78
2022/07/27 03:26:51;;;;;;;21.40;19.50;;;;;;;;;;4877079;29;20052;-78
2022/07/27 03:29:17;;;;;;;21.83;19.67;;;;;;;;;;4876572;29;20063;-78
2022/07/27 03:31:44;;;;;;;21.73;19.23;;;;;;;;;;4875758;29;20136;-77
2022/07/27 03:34:10;;;;;;;20.10;18.10;;;;;;;;;;4859841;29;20148;-78
2022/07/27 03:36:36;;;;;;;20.17;17.90;;;;;;;;;;4876610;29;20124;-79
2022/07/27 03:39:02;;;;;;;20.25;18.35;;;;;;;;;;4876614;29;20137;-78
2022/07/27 03:41:28;;;;;;;22.25;18.35;;;;;;;;;;4859919;29;20056;-79
2022/07/27 03:43:54;;;;;;;27.75;18.67;;;;;;;;;;4886433;29;20061;-78
2022/07/27 03:46:20;;;;;;;21.60;19.38;;;;;;;;;;4891271;29;20552;-79
2022/07/27 03:48:46;;;;;;;20.83;18.60;;;;;;;;;;4881933;29;20489;-79
2022/07/27 03:51:12;;;;;;;30.05;20.40;;;;;;;;;;4879906;29;20522;-79
2022/07/27 03:53:38;;;;;;;25.73;20.23;;;;;;;;;;4879819;29;20119;-79
2022/07/27 03:56:04;;;;;;;21.77;19.42;;;;;;;;;;4879689;29;20068;-79
2022/07/27 03:58:30;;;;;;;22.45;20.00;;;;;;;;;;4879441;29;20045;-79
2022/07/27 04:00:55;;;;;;;21.90;19.48;;;;;;;;;;4864122;29;20049;-79
2022/07/27 04:03:21;;;;;;;22.10;19.98;;;;;;;;;;4878798;29;20049;-80
2022/07/27 04:05:47;;;;;;;26.02;20.27;;;;;;;;;;4879485;29;20430;-80
2022/07/27 04:08:13;;;;;;;22.15;19.75;;;;;;;;;;4878971;29;20045;-80
2022/07/27 04:10:39;;;;;;;24.02;19.40;;;;;;;;;;4879966;29;20049;-79
2022/07/27 04:13:05;;;;;;;30.13;20.23;;;;;;;;;;4879814;29;20049;-80
2022/07/27 04:15:30;;;;;;;22.38;20.05;;;;;;;;;;4879042;29;20080;-78
2022/07/27 04:17:56;;;;;;;23.38;20.00;;;;;;;;;;4879766;29;20078;-80
2022/07/27 04:20:22;;;;;;;21.77;19.30;;;;;;;;;;4862023;29;20562;-80
2022/07/27 04:22:48;;;;;;;19.60;17.70;;;;;;;;;;4877314;29;20073;-80
2022/07/27 04:25:14;;;;;;;23.10;18.33;;;;;;;;;;4878641;29;20088;-80
2022/07/27 04:27:40;;;;;;;19.85;17.75;;;;;;;;;;4878777;29;20049;-78
2022/07/27 04:30:06;;;;;;;20.13;17.95;;;;;;;;;;4875489;29;20049;-80
2022/07/27 04:32:32;;;;;;;19.70;17.60;;;;;;;;;;4878255;29;20061;-80
2022/07/27 04:34:58;;;;;;;21.27;17.63;;;;;;;;;;4878552;29;20055;-79
2022/07/27 04:37:24;;;;;;;20.95;18.73;;;;;;;;;;4861713;29;20049;-79
2022/07/27 04:39:50;;;;;;;23.98;18.50;;;;;;;;;;4878621;29;20048;-80
2022/07/27 04:42:17;;;;;;;22.65;18.70;;;;;;;;;;4861667;29;20482;-81
2022/07/27 04:44:42;;;;;;;21.38;19.27;;;;;;;;;;4878598;29;20507;-80
2022/07/27 04:47:08;;;;;;;21.20;19.20;;;;;;;;;;4861923;29;20037;-81
2022/07/27 04:49:34;;;;;;;21.23;18.38;;;;;;;;;;4878405;29;20136;-80
2022/07/27 04:52:00;;;;;;;21.08;19.10;;;;;;;;;;4878515;29;20052;-81
2022/07/27 04:54:26;;;;;;;20.48;17.88;;;;;;;;;;4878104;29;20132;-79
2022/07/27 04:56:52;;;;;;;20.27;18.38;;;;;;;;;;4861666;29;20049;-80
2022/07/27 04:59:18;;;;;;;20.33;18.20;;;;;;;;;;4878334;29;20129;-80
2022/07/27 05:01:44;;;;;;;21.58;19.48;;;;;;;;;;4861840;29;20112;-80
2022/07/27 05:04:10;;;;;;;24.90;18.30;;;;;;;;;;4878181;29;20517;-79
2022/07/27 05:06:36;;;;;;;20.85;18.25;;;;;;;;;;4877772;29;20048;-80
2022/07/27 05:09:02;;;;;;;19.98;18.17;;;;;;;;;;4878486;29;20362;-80
2022/07/27 05:11:28;;;;;;;20.42;17.15;;;;;;;;;;4877565;29;20052;-80
2022/07/27 05:13:55;;;;;;;19.58;17.58;;;;;;;;;;4878021;29;20094;-82
2022/07/27 05:16:20;;;;;;;19.55;17.77;;;;;;;;;;4877128;29;20057;-78
2022/07/27 05:18:46;;;;;;;20.25;18.08;;;;;;;;;;4877638;29;20071;-78
2022/07/27 05:21:12;;;;;;;20.23;18.10;;;;;;;;;;4877110;29;20048;-78
2022/07/27 05:23:38;;;;;;;22.65;17.60;;;;;;;;;;4877292;29;20069;-78
2022/07/27 05:26:04;;;;;;;19.67;17.67;;;;;;;;;;4877280;29;20109;-78
2022/07/27 05:28:30;;;;;;;20.60;18.52;;;;;;;;;;4876861;29;20045;-78
2022/07/27 05:30:56;;;;;;;20.35;18.45;;;;;;;;;;4876716;29;20155;-79
2022/07/27 05:33:22;;;;;;;20.33;18.17;;;;;;;;;;4860306;29;20068;-79
2022/07/27 05:35:47;;;;;;;20.02;17.98;;;;;;;;;;4890503;29;20057;-78
2022/07/27 05:38:13;;;;;;;24.05;17.65;;;;;;;;;;4883043;29;20114;-79
2022/07/27 05:40:40;;;;;;;26.33;17.85;;;;;;;;;;4877743;29;20041;-79
2022/07/27 05:43:05;;;;;;;20.33;18.20;;;;;;;;;;4878130;29;20069;-78
2022/07/27 05:45:31;;;;;;;19.73;18.02;;;;;;;;;;4879003;29;20063;-79
2022/07/27 05:47:58;;;;;;;22.50;17.42;;;;;;;;;;4882548;29;20045;-78
2022/07/27 05:50:24;;;;;;;21.20;18.38;;;;;;;;;;4870578;29;20041;-79
2022/07/27 05:52:50;;;;;;;20.67;18.48;;;;;;;;;;4887958;29;20076;-78
2022/07/27 05:55:16;;;;;;;22.17;18.95;;;;;;;;;;4863093;29;20048;-78
2022/07/27 05:57:42;;;;;;;21.52;18.35;;;;;;;;;;4876571;29;20511;-77
2022/07/27 06:00:08;;;;;;;21.50;19.02;;;;;;;;;;4876627;29;20037;-78
2022/07/27 06:02:38;;;;;;;21.45;17.50;;;;;;;;;;4876383;29;20147;-77
2022/07/27 06:05:04;;;;;;;20.52;18.23;;;;;;;;;;4876374;29;20128;-77
2022/07/27 06:10:15;;;;;;;21.05;18.95;;;;;;;;;;4876515;29;20476;-77
2022/07/27 06:12:41;;;;;;;21.08;16.30;;;;;;;;;;4876118;29;20541;-76
2022/07/27 06:15:07;;;;;;;21.58;16.77;;;;;;;;;;4876304;29;20129;-78
2022/07/27 06:17:33;;;;;;;19.65;17.73;;;;;;;;;;4875998;29;20044;-77
2022/07/27 06:19:59;;;;;;;20.63;17.65;;;;;;;;;;4875125;29;20048;-77
2022/07/27 06:22:25;;;;;;;25.83;17.10;;;;;;;;;;4875779;29;20057;-77
2022/07/27 06:24:51;;;;;;;19.30;17.33;;;;;;;;;;4876123;29;20044;-78
2022/07/27 06:27:17;;;;;;;20.15;17.80;;;;;;;;;;4875741;29;20458;-79
2022/07/27 06:29:43;;;;;;;18.92;16.83;;;;;;;;;;4876288;29;20106;-77
2022/07/27 06:32:09;;;;;;;17.83;16.15;;;;;;;;;;4875734;29;20137;-79
2022/07/27 06:34:35;;;;;;;18.70;16.88;;;;;;;;;;4875940;29;20120;-78
2022/07/27 06:37:01;;;;;;;20.45;17.42;;;;;;;;;;4875884;29;20044;-77
2022/07/27 06:39:27;;;;;;;17.58;15.50;;;;;;;;;;4875683;29;20136;-78
2022/07/27 06:41:53;;;;;;;17.58;15.95;;;;;;;;;;4876006;29;20136;-77
2022/07/27 06:44:20;;;;;;;18.63;16.75;;;;;;;;;;4875666;29;20109;-78
2022/07/27 06:46:46;;;;;;;17.13;15.60;;;;;;;;;;4875893;29;20045;-77
2022/07/27 06:49:12;;;;;;;21.27;17.33;;;;;;;;;;4874905;29;20053;-77
2022/07/27 06:51:38;;;;;;;18.30;16.40;;;;;;;;;;4875855;29;20550;-76
2022/07/27 06:54:04;;;;;;;17.48;15.82;;;;;;;;;;4876059;29;20513;-78
2022/07/27 06:56:30;;;;;;;18.50;16.80;;;;;;;;;;4875759;29;20052;-78
2022/07/27 06:58:56;;;;;;;19.08;17.25;;;;;;;;;;4876282;29;20057;-79
2022/07/27 07:01:21;;;;;;;18.63;16.63;;;;;;;;;;4874735;29;20048;-77
2022/07/27 07:03:48;;;;;;;20.23;16.13;;;;;;;;;;4874988;29;20433;-78
2022/07/27 07:06:14;;;;;;;18.00;16.23;;;;;;;;;;4876092;29;20048;-77
2022/07/27 07:08:40;;;;;;;19.63;15.55;;;;;;;;;;4859184;29;20078;-78
2022/07/27 07:11:08;;;;;;;23.65;16.25;;;;;;;;;;4859358;29;20454;-79
2022/07/27 07:13:34;;;;;;;16.95;15.43;;;;;;;;;;4875792;29;20057;-79
2022/07/27 07:15:59;;;;;;;21.30;16.38;;;;;;;;;;4876263;29;20147;-79
2022/07/27 07:18:25;;;;;;;19.08;17.17;;;;;;;;;;4877222;29;20045;-80
2022/07/27 07:20:53;;;;;;;18.23;16.73;;;;;;;;;;4879587;29;20045;-79
2022/07/27 07:23:19;;;;;;;18.42;16.67;;;;;;;;;;4879715;29;20045;-80
2022/07/27 07:25:45;;;;;;;20.95;17.10;;;;;;;;;;4882444;29;20049;-80
2022/07/27 07:28:12;;;;;;;19.00;17.00;;;;;;;;;;4883023;29;20072;-78
2022/07/27 07:30:37;;;;;;;18.35;15.68;;;;;;;;;;4880062;29;20069;-78
2022/07/27 07:33:04;;;;;;;18.02;16.25;;;;;;;;;;4879061;29;20061;-80
2022/07/27 07:35:29;;;;;;;25.50;16.05;;;;;;;;;;4878793;29;20051;-78
2022/07/27 07:37:55;;;;;;;17.45;15.77;;;;;;;;;;4879037;29;20048;-78
2022/07/27 07:40:21;;;;;;;26.05;16.60;;;;;;;;;;4879022;29;20041;-81
2022/07/27 07:42:48;;;;;;;19.77;15.63;;;;;;;;;;4862097;29;20651;-79
2022/07/27 07:45:14;;;;;;;16.65;14.93;;;;;;;;;;4878968;29;20047;-79
2022/07/27 07:47:40;;;;;;;17.27;15.57;;;;;;;;;;4877622;29;20289;-80
2022/07/27 07:50:06;;;;;;;19.00;14.98;;;;;;;;;;4879055;29;20057;-80
2022/07/27 07:52:32;;;;;;;16.67;13.55;;;;;;;;;;4878548;29;20101;-79
2022/07/27 07:54:58;;;;;;;15.40;13.80;;;;;;;;;;4879114;29;20048;-80
2022/07/27 07:57:24;;;;;;;14.93;13.50;;;;;;;;;;4877202;29;20089;-79
2022/07/27 07:59:50;;;;;;;13.77;12.48;;;;;;;;;;4877756;29;20117;-80
2022/07/27 08:02:16;;;;;;;13.15;11.90;;;;;;;;;;4878716;29;20060;-79
2022/07/27 08:04:41;;;;;;;15.35;13.95;;;;;;;;;;4877333;29;20088;-81
2022/07/27 08:07:07;;;;;;;16.13;14.73;;;;;;;;;;4879001;29;20537;-80
2022/07/27 08:09:33;;;;;;;16.23;14.82;;;;;;;;;;4879025;29;20511;-81
2022/07/27 08:11:59;;;;;;;15.73;14.27;;;;;;;;;;4880050;29;20045;-80
2022/07/27 08:14:25;;;;;;;21.48;14.82;;;;;;;;;;4862266;29;20521;-82
2022/07/27 08:16:51;;;;;;;16.48;15.10;;;;;;;;;;4862174;29;20078;-80
2022/07/27 08:19:17;;;;;;;17.17;15.27;;;;;;;;;;4878059;29;20080;-81
2022/07/27 08:21:43;;;;;;;17.98;15.40;;;;;;;;;;4880255;29;20049;-79
2022/07/27 08:24:09;;;;;;;21.83;15.55;;;;;;;;;;4880279;29;20541;-80
2022/07/27 08:26:35;;;;;;;16.92;15.20;;;;;;;;;;4880363;29;20045;-81
2022/07/27 08:29:01;;;;;;;17.05;15.32;;;;;;;;;;4877830;29;20063;-82
2022/07/27 08:31:27;;;;;;;16.48;15.10;;;;;;;;;;4877820;29;20097;-81
2022/07/27 08:33:53;;;;;;;16.50;15.02;;;;;;;;;;4878245;29;20068;-80
2022/07/27 08:36:19;;;;;;;16.67;14.45;;;;;;;;;;4861712;29;20045;-79
2022/07/27 08:38:45;;;;;;;18.83;15.02;;;;;;;;;;4878208;29;20522;-80
2022/07/27 08:41:11;;;;;;;19.65;16.63;;;;;;;;;;4878272;29;20232;-82
2022/07/27 08:43:38;;;;;;;15.98;14.65;;;;;;;;;;4861682;29;20064;-80
2022/07/27 08:46:04;;;;;;;15.90;14.55;;;;;;;;;;4861642;29;20049;-81
2022/07/27 08:48:30;;;;;;;16.33;14.90;;;;;;;;;;4861163;29;20072;-80
2022/07/27 08:50:56;;;;;;;16.13;14.52;;;;;;;;;;4877283;29;20050;-79
2022/07/27 08:53:22;;;;;;;14.60;13.27;;;;;;;;;;4876991;29;20041;-77
2022/07/27 08:55:48;;;;;;;14.70;13.35;;;;;;;;;;4878226;29;20045;-80
2022/07/27 08:58:14;;;;;;;15.00;13.50;;;;;;;;;;4882618;29;20051;-78
2022/07/27 09:00:41;;;;;;;15.50;14.02;;;;;;;;;;4890569;29;20044;-80
2022/07/27 09:03:09;;;;;;;15.57;13.77;;;;;;;;;;4888785;29;20092;-81
2022/07/27 09:05:45;;;;;;;16.10;14.68;;;;;;;;;;4878325;29;20586;-79
2022/07/27 09:08:11;;;;;;;15.70;14.10;;;;;;;;;;4877975;29;20075;-79
2022/07/27 09:10:37;;;;;;;15.90;14.48;;;;;;;;;;4877620;29;20434;-82
2022/07/27 09:13:19;;;;;;;16.20;14.73;;;;;;;;;;4877736;29;20127;-79
2022/07/27 09:15:45;;;;;;;16.80;14.90;;;;;;;;;;4876499;29;20151;-79
2022/07/27 09:18:21;;;;;;;15.43;14.05;;;;;;;;;;4883682;29;20044;-81
2022/07/27 09:21:27;;;;;;;15.45;14.07;;;;;;;;;;4864651;29;20484;-80
2022/07/27 09:23:53;;;;;;;15.18;13.88;;;;;;;;;;4821293;29;20058;-80
2022/07/27 09:26:20;;;;;;;16.25;14.90;;;;;;;;;;4805551;29;20432;-81
2022/07/27 09:28:46;;;;;;;15.05;13.65;;;;;;;;;;4832127;29;20076;-81
2022/07/27 09:31:13;;;;;;;16.55;15.02;;;;;;;;;;4877772;29;20077;-82
2022/07/27 09:33:48;;;;;;;16.70;14.43;;;;;;;;;;4860492;29;20057;-81
2022/07/27 09:36:15;;;;;;;15.68;14.18;;;;;;;;;;4877391;29;20053;-81
2022/07/27 09:39:05;;;;;;;14.18;12.82;;;;;;;;;;4876611;29;20048;-79
2022/07/27 09:41:42;;;;;;;15.23;13.88;;;;;;;;;;4875917;29;20056;-80
2022/07/27 09:44:08;;;;;;;17.85;14.85;;;;;;;;;;4877185;29;20089;-80
2022/07/27 09:46:35;;;;;;;16.02;14.27;;;;;;;;;;4877059;29;20131;-80
2022/07/27 09:49:01;;;;;;;16.25;14.70;;;;;;;;;;4860342;29;20052;-81
2022/07/27 09:51:27;;;;;;;17.70;15.93;;;;;;;;;;4876947;29;20052;-79
2022/07/27 09:53:53;;;;;;;16.33;14.65;;;;;;;;;;4876568;29;20045;-81
2022/07/27 09:56:26;;;;;;;17.60;16.17;;;;;;;;;;4876965;29;20140;-79
2022/07/27 09:58:54;;;;;;;17.35;15.95;;;;;;;;;;4860053;29;20206;-82
2022/07/27 10:01:21;;;;;;;17.85;15.65;;;;;;;;;;4877026;29;20140;-82
2022/07/27 10:03:47;;;;;;;15.60;14.18;;;;;;;;;;4877113;29;20105;-83
2022/07/27 10:06:13;;;;;;;16.30;15.10;;;;;;;;;;4860413;29;20079;-81
2022/07/27 10:08:40;;;;;;;17.48;16.13;;;;;;;;;;4876916;29;20080;-81
2022/07/27 10:11:06;;;;;;;21.73;16.10;;;;;;;;;;4876712;29;20105;-82
2022/07/27 10:13:32;;;;;;;16.77;15.38;;;;;;;;;;4876429;29;20053;-82
2022/07/27 10:15:59;;;;;;;17.02;15.57;;;;;;;;;;4876990;29;20113;-81
2022/07/27 10:18:32;;;;;;;17.15;15.75;;;;;;;;;;4860396;29;20047;-81
2022/07/27 10:20:58;;;;;;;15.70;14.15;;;;;;;;;;4860596;29;20048;-81
2022/07/27 10:23:25;;;;;;;16.55;14.55;;;;;;;;;;4876916;29;20061;-81
2022/07/27 10:26:11;;;;;;;14.88;13.85;;;;;;;;;;4877263;29;20041;-79
2022/07/27 10:28:56;;;;;;;15.50;14.27;;;;;;;;;;4876794;29;20128;-82
2022/07/27 10:31:23;;;;;;;14.55;13.45;;;;;;;;;;4877191;29;20075;-81
2022/07/27 10:33:52;;;;;;;16.25;14.70;;;;;;;;;;4877034;29;20671;-81
2022/07/27 10:36:24;;;;;;;14.88;13.48;;;;;;;;;;4860760;29;20048;-80
2022/07/27 10:38:56;;;;;;;17.23;15.63;;;;;;;;;;4876940;29;20045;-82
2022/07/27 10:41:29;;;;;;;16.05;14.77;;;;;;;;;;4876715;29;20055;-80
2022/07/27 10:44:17;;;;;;;17.60;16.05;;;;;;;;;;4877505;29;20052;-80
2022/07/27 10:46:43;;;;;;;16.23;14.50;;;;;;;;;;4877216;29;20053;-78
2022/07/27 10:49:19;;;;;;;15.82;14.55;;;;;;;;;;4860230;29;20068;-82
2022/07/27 10:51:45;;;;;;;18.95;15.18;;;;;;;;;;4876828;29;20052;-80
2022/07/27 10:54:21;;;;;;;15.50;14.00;;;;;;;;;;4879954;29;20037;-81
2022/07/27 10:56:48;;;;;;;15.43;14.02;;;;;;;;;;4848052;29;20600;-81
2022/07/27 10:59:13;;;;;;;16.27;14.68;;;;;;;;;;4880342;29;20546;-82
2022/07/27 11:01:56;;;;;;;15.13;14.00;;;;;;;;;;4880442;29;20085;-81
2022/07/27 11:04:22;;;;;;;14.18;12.88;;;;;;;;;;4879929;29;20056;-81
2022/07/27 11:06:50;;;;;;;16.13;14.50;;;;;;;;;;4880061;29;20493;-80
2022/07/27 11:09:16;;;;;;;15.55;14.25;;;;;;;;;;4865110;29;20413;-80
2022/07/27 11:11:42;;;;;;;14.35;13.15;;;;;;;;;;4892168;29;20093;-79
2022/07/27 11:14:08;;;;;;;14.25;12.95;;;;;;;;;;4869543;29;20053;-83
2022/07/27 11:16:35;;;;;;;14.48;13.10;;;;;;;;;;4863444;29;20051;-82
2022/07/27 11:19:02;;;;;;;14.30;13.00;;;;;;;;;;4863269;29;20048;-81
2022/07/27 11:21:29;;;;;;;14.70;13.50;;;;;;;;;;4863130;29;20079;-81
2022/07/27 11:24:17;;;;;;;14.05;12.57;;;;;;;;;;4862651;29;20450;-81
2022/07/27 11:26:44;;;;;;;13.52;12.32;;;;;;;;;;4879701;29;20057;-81
2022/07/27 11:29:10;;;;;;;14.23;13.02;;;;;;;;;;4878712;29;20040;-81
2022/07/27 11:31:36;;;;;;;13.68;12.57;;;;;;;;;;4879487;29;20049;-82
2022/07/27 11:34:02;;;;;;;14.38;13.00;;;;;;;;;;4863214;29;20186;-81
2022/07/27 11:36:38;;;;;;;14.18;12.98;;;;;;;;;;4880289;29;20052;-80
2022/07/27 11:39:05;;;;;;;13.57;12.68;;;;;;;;;;4879486;29;20049;-81
2022/07/27 11:41:32;;;;;;;13.68;12.45;;;;;;;;;;4879359;29;20496;-81
2022/07/27 11:43:59;;;;;;;12.90;11.70;;;;;;;;;;4879470;29;20053;-81
2022/07/27 11:46:26;;;;;;;13.30;12.10;;;;;;;;;;4862955;29;20049;-81
2022/07/27 11:48:53;;;;;;;13.23;12.23;;;;;;;;;;4878111;29;20045;-80
2022/07/27 11:51:18;;;;;;;13.95;12.10;;;;;;;;;;4863054;29;20052;-80
2022/07/27 11:53:44;;;;;;;13.25;11.88;;;;;;;;;;4862179;29;20069;-81
2022/07/27 11:56:10;;;;;;;14.52;12.43;;;;;;;;;;4878422;29;20056;-81
2022/07/27 11:58:55;;;;;;;13.60;12.45;;;;;;;;;;4879252;29;20426;-82
2022/07/27 12:01:27;;;;;;;11.43;10.40;;;;;;;;;;4878936;29;20548;-80
2022/07/27 12:04:06;;;;;;;13.30;12.15;;;;;;;;;;4878902;29;20518;-82
2022/07/27 12:06:33;;;;;;;14.05;12.82;;;;;;;;;;4879122;29;20458;-80
2022/07/27 12:09:00;;;;;;;13.48;12.27;;;;;;;;;;4863858;29;20060;-81
2022/07/27 12:11:29;;;;;;;13.80;12.65;;;;;;;;;;4853392;29;20136;-80
2022/07/27 12:13:58;;;;;;;13.82;12.63;;;;;;;;;;4891847;29;20045;-81
2022/07/27 12:16:24;;;;;;;14.68;12.40;;;;;;;;;;4870429;29;20133;-81
2022/07/27 12:18:49;;;;;;;10.73;9.63;;;;;;;;;;4863533;29;20105;-81
2022/07/27 12:21:16;;;;;;;11.43;10.55;;;;;;;;;;4879672;29;20143;-80
2022/07/27 12:23:51;;;;;;;15.75;14.40;;;;;;;;;;4880071;29;20430;-82
2022/07/27 12:26:20;;;;;;;14.80;13.48;;;;;;;;;;4879190;29;20071;-81
2022/07/27 12:29:03;;;;;;;14.15;12.85;;;;;;;;;;4878939;29;20097;-81
2022/07/27 12:31:29;;;;;;;14.20;12.90;;;;;;;;;;4879012;29;20041;-80
2022/07/27 12:33:56;;;;;;;12.95;11.85;;;;;;;;;;4878206;29;20128;-81
2022/07/27 12:36:25;;;;;;;10.82;9.82;;;;;;;;;;4878554;29;20048;-81
2022/07/27 12:38:51;;;;;;;;;;;;;;;;;;4878385;29;20176;-79
2022/07/27 12:41:22;;;;;;;13.95;12.75;;;;;;;;;;4877314;29;19998;-81
2022/07/27 12:44:08;;;;;;;13.85;12.65;;;;;;;;;;4861213;29;20061;-80
2022/07/27 12:46:53;;;;;;;14.15;13.00;;;;;;;;;;4877843;29;20045;-80
2022/07/27 12:49:22;;;;;;;15.13;13.50;;;;;;;;;;4878535;29;20537;-81
2022/07/27 12:51:49;;;;;;;14.52;13.00;;;;;;;;;;4878438;29;20053;-79
2022/07/27 12:54:15;;;;;;;20.23;13.88;;;;;;;;;;4877990;29;20044;-80
2022/07/27 12:56:40;;;;;;;15.45;14.23;;;;;;;;;;4878822;29;20045;-82
2022/07/27 12:59:06;;;;;;;15.65;14.35;;;;;;;;;;4878081;29;20576;-80
2022/07/27 13:01:32;;;;;;;15.07;13.77;;;;;;;;;;4885501;29;20072;-81
2022/07/27 13:03:58;;;;;;;15.43;14.13;;;;;;;;;;4888227;29;20064;-80
2022/07/27 13:06:25;;;;;;;15.55;14.02;;;;;;;;;;4879083;29;20052;-80
2022/07/27 13:08:51;;;;;;;14.57;13.38;;;;;;;;;;4861448;29;20045;-82
2022/07/27 13:11:17;;;;;;;21.17;13.38;;;;;;;;;;4878268;29;20041;-81
2022/07/27 13:13:43;;;;;;;15.23;13.18;;;;;;;;;;4861013;29;20076;-80
2022/07/27 13:16:09;;;;;;;14.68;13.23;;;;;;;;;;4861069;29;20072;-80
2022/07/27 13:18:35;;;;;;;13.68;12.60;;;;;;;;;;4861027;29;20045;-80
2022/07/27 13:21:01;;;;;;;14.73;12.70;;;;;;;;;;4860729;29;20045;-81
2022/07/27 13:23:28;;;;;;;14.32;13.13;;;;;;;;;;4876073;29;20089;-81
2022/07/27 13:25:54;;;;;;;13.13;12.02;;;;;;;;;;4877482;29;20064;-80
2022/07/27 13:28:20;;;;;;;16.27;13.18;;;;;;;;;;4876415;29;20071;-82
2022/07/27 13:30:46;;;;;;;14.98;13.38;;;;;;;;;;4877345;29;20033;-80
2022/07/27 13:33:12;;;;;;;14.73;13.63;;;;;;;;;;4860447;29;20053;-82
2022/07/27 13:35:38;;;;;;;14.05;12.90;;;;;;;;;;4877454;29;20564;-80
2022/07/27 13:38:04;;;;;;;14.40;13.32;;;;;;;;;;4877166;29;20049;-81
2022/07/27 13:40:30;;;;;;;14.98;12.10;;;;;;;;;;4877042;29;20068;-81
2022/07/27 13:42:56;;;;;;;15.40;14.10;;;;;;;;;;4877206;29;20081;-80
2022/07/27 13:45:22;;;;;;;13.13;12.13;;;;;;;;;;4860335;29;20133;-79
2022/07/27 13:47:47;;;;;;;17.40;12.85;;;;;;;;;;4876909;29;20076;-81
2022/07/27 13:50:15;;;;;;;13.57;12.68;;;;;;;;;;4860548;29;20045;-80
2022/07/27 13:52:41;;;;;;;13.57;12.48;;;;;;;;;;4877407;29;20546;-80
2022/07/27 13:55:07;;;;;;;15.70;13.13;;;;;;;;;;4860318;29;20053;-81
2022/07/27 13:57:33;;;;;;;13.90;12.80;;;;;;;;;;4860617;29;20041;-82
2022/07/27 13:59:59;;;;;;;13.00;11.90;;;;;;;;;;4876830;29;20132;-80
2022/07/27 14:02:25;;;;;;;13.38;11.95;;;;;;;;;;4875782;29;20052;-81
2022/07/27 14:04:52;;;;;;;13.48;12.32;;;;;;;;;;4860095;29;20159;-80
2022/07/27 14:07:17;;;;;;;12.70;11.80;;;;;;;;;;4877105;29;20053;-80
2022/07/27 14:12:28;;;;;;;14.85;13.45;;;;;;;;;;4876943;29;20037;-80
2022/07/27 14:14:55;;;;;;;15.23;13.45;;;;;;;;;;4876663;29;20053;-82
2022/07/27 14:17:21;;;;;;;16.40;13.80;;;;;;;;;;4876986;29;20078;-81
2022/07/27 14:19:47;;;;;;;15.90;13.30;;;;;;;;;;4875213;29;20434;-81
2022/07/27 14:22:13;;;;;;;15.48;13.93;;;;;;;;;;4860176;29;20053;-80
2022/07/27 14:24:39;;;;;;;14.38;13.18;;;;;;;;;;4876831;29;20117;-81
2022/07/27 14:27:05;;;;;;;14.85;13.45;;;;;;;;;;4876975;29;20056;-79